createdAt,value
2019-02-08T00:00:46.681Z,22.37
2019-02-08T00:03:15.091Z,20.60
2019-02-08T00:05:43.783Z,21.50
2019-02-08T00:08:12.208Z,20.43
2019-02-08T00:10:41.019Z,23.73
2019-02-08T00:13:09.463Z,23.25
2019-02-08T00:15:37.974Z,23.32
2019-02-08T00:18:06.663Z,22.50
2019-02-08T00:20:35.140Z,24.82
2019-02-08T00:23:03.902Z,22.98
2019-02-08T00:25:32.361Z,20.40
2019-02-08T00:28:01.054Z,20.75
2019-02-08T00:30:30.370Z,20.77
2019-02-08T00:32:58.796Z,21.57
2019-02-08T00:35:27.490Z,21.40
2019-02-08T00:37:55.943Z,20.62
2019-02-08T00:40:25.692Z,20.68
2019-02-08T00:42:54.783Z,21.73
2019-02-08T00:45:24.278Z,21.25
2019-02-08T00:47:52.734Z,23.07
2019-02-08T00:50:23.363Z,22.37
2019-02-08T00:52:52.735Z,20.17
2019-02-08T00:55:21.391Z,19.70
2019-02-08T00:57:49.844Z,19.07
2019-02-08T01:00:19.671Z,21.97
2019-02-08T01:02:49.572Z,20.82
2019-02-08T01:05:28.776Z,20.88
2019-02-08T01:07:57.231Z,22.48
2019-02-08T01:10:31.299Z,21.75
2019-02-08T01:13:01.667Z,22.02
2019-02-08T01:15:32.116Z,19.80
2019-02-08T01:18:01.555Z,20.00
2019-02-08T01:20:30.262Z,20.88
2019-02-08T01:22:58.696Z,22.62
2019-02-08T01:25:34.689Z,19.75
2019-02-08T01:28:03.173Z,19.20
2019-02-08T01:30:33.279Z,17.95
2019-02-08T01:33:02.243Z,19.87
2019-02-08T01:35:32.000Z,22.70
2019-02-08T01:38:01.601Z,18.07
2019-02-08T01:40:38.307Z,18.40
2019-02-08T01:43:08.595Z,16.62
2019-02-08T01:45:37.110Z,17.00
2019-02-08T01:48:07.877Z,17.57
2019-02-08T01:50:36.626Z,15.58
2019-02-08T01:53:06.783Z,17.92
2019-02-08T01:55:35.285Z,16.50
2019-02-08T01:58:03.796Z,14.43
2019-02-08T02:00:37.842Z,16.50
2019-02-08T02:03:08.716Z,15.35
2019-02-08T02:05:37.322Z,14.70
2019-02-08T02:08:06.212Z,15.60
2019-02-08T02:10:39.957Z,13.95
2019-02-08T02:13:09.238Z,13.58
2019-02-08T02:15:38.029Z,15.72
2019-02-08T02:18:07.476Z,15.25
2019-02-08T02:20:37.830Z,14.38
2019-02-08T02:23:07.599Z,14.15
2019-02-08T02:25:36.043Z,16.15
2019-02-08T02:28:05.498Z,14.40
2019-02-08T02:30:36.087Z,14.98
2019-02-08T02:33:07.323Z,14.53
2019-02-08T02:35:35.807Z,13.53
2019-02-08T02:38:05.387Z,14.10
2019-02-08T02:40:34.067Z,13.40
2019-02-08T02:43:02.761Z,13.58
2019-02-08T02:45:33.339Z,12.85
2019-02-08T02:48:01.916Z,15.30
2019-02-08T02:50:30.978Z,13.00
2019-02-08T02:52:59.390Z,13.00
2019-02-08T02:55:30.272Z,14.98
2019-02-08T02:57:59.163Z,13.72
2019-02-08T03:00:39.858Z,14.83
2019-02-08T03:03:08.355Z,12.53
2019-02-08T03:05:36.792Z,11.22
2019-02-08T03:08:07.551Z,13.40
2019-02-08T03:10:36.479Z,13.78
2019-02-08T03:13:05.743Z,13.32
2019-02-08T03:15:34.435Z,13.20
2019-02-08T03:18:03.118Z,12.65
2019-02-08T03:20:31.592Z,13.48
2019-02-08T03:23:00.018Z,12.73
2019-02-08T03:25:29.703Z,12.78
2019-02-08T03:28:05.926Z,12.07
2019-02-08T03:30:36.552Z,11.83
2019-02-08T03:33:05.505Z,10.40
2019-02-08T03:35:34.163Z,10.25
2019-02-08T03:38:02.671Z,12.93
2019-02-08T03:40:31.925Z,12.20
2019-02-08T03:43:01.174Z,13.35
2019-02-08T03:45:34.189Z,13.03
2019-02-08T03:48:02.635Z,11.35
2019-02-08T03:50:31.267Z,11.45
2019-02-08T03:52:59.762Z,11.55
2019-02-08T03:55:28.435Z,12.03
2019-02-08T03:57:56.846Z,14.05
2019-02-08T04:00:29.619Z,13.62
2019-02-08T04:02:58.062Z,12.30
2019-02-08T04:05:27.005Z,11.43
2019-02-08T04:07:55.433Z,12.95
2019-02-08T04:10:24.196Z,11.25
2019-02-08T04:12:52.604Z,12.80
2019-02-08T04:15:22.984Z,11.88
2019-02-08T04:17:51.682Z,10.13
2019-02-08T04:20:22.679Z,13.15
2019-02-08T04:22:51.133Z,10.88
2019-02-08T04:25:20.018Z,11.75
2019-02-08T04:27:48.538Z,11.78
2019-02-08T04:30:25.321Z,12.23
2019-02-08T04:32:54.118Z,12.18
2019-02-08T04:35:22.906Z,10.13
2019-02-08T04:37:51.506Z,11.22
2019-02-08T04:40:22.063Z,11.25
2019-02-08T04:42:50.843Z,11.10
2019-02-08T04:45:20.188Z,12.00
2019-02-08T04:47:49.274Z,10.93
2019-02-08T04:50:28.390Z,12.28
2019-02-08T04:52:57.586Z,11.30
2019-02-08T04:55:26.655Z,13.15
2019-02-08T04:57:55.110Z,10.90
2019-02-08T05:00:29.410Z,11.38
2019-02-08T05:02:58.127Z,15.15
2019-02-08T05:05:26.977Z,15.68
2019-02-08T05:07:55.798Z,12.65
2019-02-08T05:10:29.968Z,15.85
2019-02-08T05:12:58.971Z,13.05
2019-02-08T05:15:27.582Z,14.25
2019-02-08T05:17:56.070Z,14.53
2019-02-08T05:20:27.027Z,13.15
2019-02-08T05:22:55.736Z,13.40
2019-02-08T05:25:24.623Z,14.75
2019-02-08T05:27:53.087Z,15.03
2019-02-08T05:30:26.547Z,13.32
2019-02-08T05:32:55.269Z,14.87
2019-02-08T05:35:24.544Z,15.38
2019-02-08T05:37:53.262Z,17.35
2019-02-08T05:40:22.314Z,16.37
2019-02-08T05:42:51.034Z,17.17
2019-02-08T05:45:24.858Z,15.65
2019-02-08T05:47:53.382Z,16.45
2019-02-08T05:50:24.624Z,15.40
2019-02-08T05:52:53.061Z,16.15
2019-02-08T05:55:27.101Z,15.70
2019-02-08T05:57:55.915Z,18.45
2019-02-08T06:00:29.074Z,19.32
2019-02-08T06:02:57.657Z,19.73
2019-02-08T06:05:26.812Z,17.30
2019-02-08T06:07:55.225Z,17.45
2019-02-08T06:10:23.737Z,16.85
2019-02-08T06:12:52.182Z,19.75
2019-02-08T06:15:26.231Z,19.15
2019-02-08T06:17:54.638Z,17.32
2019-02-08T06:20:25.000Z,18.75
2019-02-08T06:22:53.722Z,18.60
2019-02-08T06:25:23.689Z,20.50
2019-02-08T06:27:52.921Z,19.48
2019-02-08T06:30:29.936Z,20.48
2019-02-08T06:32:58.692Z,22.60
2019-02-08T06:35:28.816Z,23.55
2019-02-08T06:37:57.328Z,21.50
2019-02-08T06:40:28.866Z,22.50
2019-02-08T06:42:57.683Z,20.97
2019-02-08T06:45:27.527Z,18.55
2019-02-08T06:47:59.945Z,20.05
2019-02-08T06:50:28.943Z,19.35
2019-02-08T06:52:57.554Z,19.98
2019-02-08T06:55:26.749Z,22.90
2019-02-08T06:58:03.793Z,19.85
2019-02-08T07:00:39.840Z,20.45
2019-02-08T07:03:27.105Z,20.88
2019-02-08T07:06:13.410Z,21.30
2019-02-08T07:08:43.680Z,20.35
2019-02-08T07:11:19.575Z,18.65
2019-02-08T07:13:50.389Z,22.05
2019-02-08T07:16:39.847Z,19.98
2019-02-08T07:19:10.291Z,18.73
2019-02-08T07:21:55.575Z,17.87
2019-02-08T07:24:31.375Z,18.85
2019-02-08T07:27:01.432Z,18.73
2019-02-08T07:29:31.647Z,18.80
2019-02-08T07:32:12.510Z,18.00
2019-02-08T07:34:59.276Z,17.60
2019-02-08T07:37:32.469Z,18.85
2019-02-08T07:40:20.962Z,20.48
2019-02-08T07:43:08.976Z,18.57
2019-02-08T07:46:00.355Z,20.45
2019-02-08T07:48:37.421Z,19.20
2019-02-08T07:51:16.759Z,18.57
2019-02-08T07:53:48.680Z,17.60
2019-02-08T07:56:24.089Z,18.75
2019-02-08T07:59:00.315Z,16.20
2019-02-08T08:01:51.137Z,17.70
2019-02-08T08:04:37.670Z,16.40
2019-02-08T08:07:08.366Z,17.57
2019-02-08T08:09:54.693Z,16.73
2019-02-08T08:12:41.078Z,17.20
2019-02-08T08:15:17.066Z,18.62
2019-02-08T08:17:47.297Z,16.80
2019-02-08T08:20:20.471Z,18.90
2019-02-08T08:22:50.923Z,21.77
2019-02-08T08:25:24.327Z,18.87
2019-02-08T08:27:57.858Z,18.57
2019-02-08T08:30:43.783Z,18.15
2019-02-08T08:33:21.205Z,16.50
2019-02-08T08:35:58.365Z,19.80
2019-02-08T08:38:44.884Z,17.82
2019-02-08T08:41:52.787Z,17.62
2019-02-08T08:44:51.427Z,17.20
2019-02-08T08:47:43.019Z,16.90
2019-02-08T08:50:29.011Z,17.48
2019-02-08T08:53:12.230Z,17.12
2019-02-08T08:56:01.849Z,17.30
2019-02-08T08:58:41.581Z,16.95
2019-02-08T09:01:27.695Z,16.07
2019-02-08T09:04:23.379Z,16.20
2019-02-08T09:07:28.162Z,17.48
2019-02-08T09:10:23.395Z,16.12
2019-02-08T09:13:14.940Z,15.93
2019-02-08T09:15:46.181Z,12.50
2019-02-08T09:18:55.114Z,15.53
2019-02-08T09:21:32.244Z,14.38
2019-02-08T09:24:06.451Z,15.43
2019-02-08T09:27:12.659Z,13.08
2019-02-08T09:29:53.255Z,13.78
2019-02-08T09:32:39.795Z,13.20
2019-02-08T09:35:32.011Z,14.10
2019-02-08T09:38:06.452Z,14.07
2019-02-08T09:40:49.726Z,13.45
2019-02-08T09:43:43.748Z,13.80
2019-02-08T09:46:29.803Z,12.63
2019-02-08T09:49:37.111Z,12.65
2019-02-08T09:52:41.775Z,12.82
2019-02-08T09:55:21.797Z,12.82
2019-02-08T09:58:11.083Z,11.28
2019-02-08T10:00:59.114Z,11.53
2019-02-08T10:03:52.211Z,12.43
2019-02-08T10:06:41.719Z,12.93
2019-02-08T10:09:37.523Z,10.80
2019-02-08T10:12:27.076Z,10.55
2019-02-08T10:15:20.929Z,11.30
2019-02-08T10:18:08.876Z,11.38
2019-02-08T10:20:58.516Z,10.03
2019-02-08T10:23:39.159Z,8.60
2019-02-08T10:26:28.367Z,10.82
2019-02-08T10:29:20.828Z,10.28
2019-02-08T10:32:09.129Z,8.65
2019-02-08T10:35:12.522Z,8.38
2019-02-08T10:37:56.913Z,8.03
2019-02-08T10:40:44.829Z,7.78
2019-02-08T10:43:53.282Z,7.35
2019-02-08T10:46:48.910Z,7.30
2019-02-08T10:49:40.040Z,7.42
2019-02-08T10:52:44.990Z,6.70
2019-02-08T10:55:30.802Z,8.25
2019-02-08T10:58:35.311Z,7.08
2019-02-08T11:01:41.914Z,8.50
2019-02-08T11:04:36.174Z,6.40
2019-02-08T11:07:07.683Z,7.30
2019-02-08T11:09:58.783Z,6.70
2019-02-08T11:12:51.447Z,7.15
2019-02-08T11:15:48.597Z,7.78
2019-02-08T11:18:53.199Z,7.60
2019-02-08T11:21:21.857Z,7.70
2019-02-08T11:23:50.266Z,6.87
2019-02-08T11:26:23.112Z,7.65
2019-02-08T11:28:49.399Z,5.85
2019-02-08T11:31:17.819Z,5.85
2019-02-08T11:33:46.275Z,5.67
2019-02-08T11:36:14.689Z,6.03
2019-02-08T11:38:44.726Z,5.10
2019-02-08T11:41:13.352Z,5.28
2019-02-08T11:43:41.755Z,5.75
2019-02-08T11:46:10.179Z,5.65
2019-02-08T11:48:38.620Z,6.83
2019-02-08T11:51:11.089Z,5.50
2019-02-08T11:53:39.539Z,6.67
2019-02-08T11:56:07.997Z,7.78
2019-02-08T11:58:36.430Z,6.10
2019-02-08T12:01:05.494Z,5.40
2019-02-08T12:03:33.931Z,6.62
2019-02-08T12:06:02.356Z,6.70
2019-02-08T12:08:31.044Z,7.25
2019-02-08T12:10:59.512Z,8.45
2019-02-08T12:13:28.029Z,5.80
2019-02-08T12:15:56.548Z,6.25
2019-02-08T12:18:24.962Z,5.78
2019-02-08T12:20:53.396Z,6.05
2019-02-08T12:23:25.956Z,6.72
2019-02-08T12:25:54.410Z,5.62
2019-02-08T12:28:22.830Z,5.40
2019-02-08T12:30:51.311Z,6.15
2019-02-08T12:33:19.742Z,5.33
2019-02-08T12:35:48.235Z,6.22
2019-02-08T12:38:16.663Z,5.67
2019-02-08T12:40:45.283Z,7.25
2019-02-08T12:43:13.686Z,5.53
2019-02-08T12:45:42.196Z,5.53
2019-02-08T12:48:10.790Z,6.47
2019-02-08T12:50:39.346Z,5.87
2019-02-08T12:53:11.506Z,5.62
2019-02-08T12:55:40.015Z,5.95
2019-02-08T12:58:08.518Z,7.70
2019-02-08T13:00:36.945Z,6.28
2019-02-08T13:03:05.438Z,6.90
2019-02-08T13:05:33.887Z,6.08
2019-02-08T13:08:02.364Z,5.37
2019-02-08T13:10:31.827Z,5.50
2019-02-08T13:13:00.280Z,7.15
2019-02-08T13:15:28.687Z,7.83
2019-02-08T13:17:57.136Z,6.80
2019-02-08T13:20:25.617Z,7.37
2019-02-08T13:22:54.049Z,5.75
2019-02-08T13:25:22.907Z,6.58
2019-02-08T13:27:51.344Z,7.17
2019-02-08T13:30:31.157Z,6.97
2019-02-08T13:32:59.659Z,6.17
2019-02-08T13:35:28.894Z,6.70
2019-02-08T13:37:57.341Z,6.30
2019-02-08T13:40:30.388Z,6.50
2019-02-08T13:42:58.887Z,7.03
2019-02-08T13:45:27.843Z,5.85
2019-02-08T13:47:56.533Z,7.35
2019-02-08T13:50:30.178Z,5.45
2019-02-08T13:52:59.230Z,6.60
2019-02-08T13:55:28.232Z,6.35
2019-02-08T13:57:56.999Z,7.20
2019-02-08T14:00:28.358Z,5.87
2019-02-08T14:02:56.839Z,4.85
2019-02-08T14:05:25.248Z,5.55
2019-02-08T14:07:58.107Z,6.30
2019-02-08T14:10:26.545Z,5.85
2019-02-08T14:12:54.964Z,5.53
2019-02-08T14:15:26.799Z,7.47
2019-02-08T14:17:55.265Z,5.62
2019-02-08T14:20:28.218Z,6.17
2019-02-08T14:22:59.857Z,7.15
2019-02-08T14:25:28.297Z,6.55
2019-02-08T14:27:56.764Z,5.70
2019-02-08T14:30:28.660Z,5.55
2019-02-08T14:32:57.158Z,5.25
2019-02-08T14:35:26.049Z,5.30
2019-02-08T14:37:58.418Z,4.70
2019-02-08T14:40:28.719Z,6.87
2019-02-08T14:42:57.157Z,8.30
2019-02-08T14:45:25.834Z,6.35
2019-02-08T14:47:54.274Z,5.22
2019-02-08T14:50:30.257Z,4.75
2019-02-08T14:52:59.543Z,6.95
2019-02-08T14:55:28.599Z,5.37
2019-02-08T14:58:01.604Z,5.47
2019-02-08T15:00:30.019Z,5.53
2019-02-08T15:02:58.460Z,5.70
2019-02-08T15:05:27.047Z,5.08
2019-02-08T15:07:55.506Z,5.33
2019-02-08T15:10:29.503Z,5.25
2019-02-08T15:12:58.199Z,5.08
2019-02-08T15:15:26.961Z,5.40
2019-02-08T15:17:55.414Z,5.25
2019-02-08T15:20:34.627Z,5.45
2019-02-08T15:23:03.070Z,4.87
2019-02-08T15:25:31.487Z,4.58
2019-02-08T15:27:59.956Z,4.65
2019-02-08T15:30:34.084Z,5.25
2019-02-08T15:33:02.781Z,5.87
2019-02-08T15:35:31.886Z,5.00
2019-02-08T15:38:00.443Z,4.45
2019-02-08T15:40:35.036Z,4.85
2019-02-08T15:43:04.193Z,6.15
2019-02-08T15:45:32.627Z,5.55
2019-02-08T15:48:01.061Z,4.30
2019-02-08T15:50:29.578Z,4.70
2019-02-08T15:52:58.090Z,4.65
2019-02-08T15:55:35.295Z,5.03
2019-02-08T15:58:04.119Z,4.50
2019-02-08T16:00:32.758Z,4.83
2019-02-08T16:03:01.251Z,5.45
2019-02-08T16:05:31.431Z,4.70
2019-02-08T16:08:00.142Z,3.90
2019-02-08T16:10:28.962Z,4.15
2019-02-08T16:12:57.518Z,5.70
2019-02-08T16:15:30.567Z,4.55
2019-02-08T16:17:59.290Z,3.98
2019-02-08T16:20:29.368Z,5.25
2019-02-08T16:22:59.424Z,4.20
2019-02-08T16:25:34.063Z,6.20
2019-02-08T16:28:02.495Z,5.05
2019-02-08T16:30:36.586Z,4.45
2019-02-08T16:33:07.281Z,4.20
2019-02-08T16:35:36.267Z,4.10
2019-02-08T16:38:06.313Z,4.62
2019-02-08T16:40:35.861Z,5.85
2019-02-08T16:43:05.427Z,4.40
2019-02-08T16:45:39.117Z,4.75
2019-02-08T16:48:10.350Z,3.72
2019-02-08T16:50:38.857Z,4.40
2019-02-08T16:53:09.236Z,4.90
2019-02-08T16:55:37.897Z,4.90
2019-02-08T16:58:11.254Z,6.03
2019-02-08T17:00:43.237Z,4.40
2019-02-08T17:03:13.834Z,4.22
2019-02-08T17:05:43.371Z,4.70
2019-02-08T17:08:11.820Z,5.42
2019-02-08T17:10:40.480Z,4.83
2019-02-08T17:13:09.198Z,5.17
2019-02-08T17:15:38.130Z,4.97
2019-02-08T17:18:07.907Z,6.05
2019-02-08T17:20:47.621Z,5.60
2019-02-08T17:23:16.054Z,4.08
2019-02-08T17:25:44.612Z,4.75
2019-02-08T17:28:16.211Z,4.35
2019-02-08T17:30:44.629Z,4.87
2019-02-08T17:33:13.070Z,5.00
2019-02-08T17:35:41.504Z,4.87
2019-02-08T17:38:10.133Z,4.55
2019-02-08T17:40:47.399Z,5.20
2019-02-08T17:43:16.240Z,4.92
2019-02-08T17:45:44.655Z,4.03
2019-02-08T17:48:15.697Z,4.17
2019-02-08T17:50:44.212Z,4.20
2019-02-08T17:53:12.634Z,4.15
2019-02-08T17:55:41.228Z,4.65
2019-02-08T17:58:09.639Z,4.10
2019-02-08T18:00:44.773Z,5.00
2019-02-08T18:03:13.247Z,3.95
2019-02-08T18:05:41.678Z,4.15
2019-02-08T18:08:10.432Z,3.80
2019-02-08T18:10:38.866Z,4.75
2019-02-08T18:13:07.391Z,4.87
2019-02-08T18:15:35.799Z,3.52
2019-02-08T18:18:06.884Z,4.45
2019-02-08T18:20:43.949Z,4.97
2019-02-08T18:23:12.465Z,4.08
2019-02-08T18:25:41.043Z,4.45
2019-02-08T18:28:13.401Z,4.72
2019-02-08T18:30:41.811Z,3.72
2019-02-08T18:33:10.214Z,3.30
2019-02-08T18:35:38.730Z,4.08
2019-02-08T18:38:07.405Z,5.25
2019-02-08T18:40:35.850Z,4.53
2019-02-08T18:43:04.629Z,4.10
2019-02-08T18:45:37.290Z,5.65
2019-02-08T18:48:07.062Z,4.20
2019-02-08T18:50:41.470Z,5.17
2019-02-08T18:53:09.874Z,4.15
2019-02-08T18:55:38.315Z,4.55
2019-02-08T18:58:19.085Z,4.55
2019-02-08T19:00:46.983Z,4.35
2019-02-08T19:03:15.402Z,3.55
2019-02-08T19:05:44.195Z,5.20
2019-02-08T19:08:12.887Z,4.65
2019-02-08T19:10:41.291Z,4.40
2019-02-08T19:13:13.165Z,4.50
2019-02-08T19:15:42.034Z,4.67
2019-02-08T19:18:10.892Z,4.28
2019-02-08T19:20:39.415Z,5.30
2019-02-08T19:23:08.425Z,5.15
2019-02-08T19:25:42.437Z,4.80
2019-02-08T19:28:14.943Z,3.85
2019-02-08T19:30:44.495Z,4.12
2019-02-08T19:33:12.907Z,4.10
2019-02-08T19:35:41.557Z,4.28
2019-02-08T19:38:10.428Z,4.67
2019-02-08T19:40:41.311Z,3.72
2019-02-08T19:43:13.838Z,4.70
2019-02-08T19:45:42.584Z,4.85
2019-02-08T19:48:11.792Z,5.08
2019-02-08T19:50:42.646Z,5.15
2019-02-08T19:53:11.586Z,4.35
2019-02-08T19:55:40.979Z,4.35
2019-02-08T19:58:10.299Z,4.80
2019-02-08T20:00:40.754Z,4.50
2019-02-08T20:03:09.803Z,6.53
2019-02-08T20:05:38.282Z,5.53
2019-02-08T20:08:07.592Z,6.45
2019-02-08T20:10:38.440Z,7.67
2019-02-08T20:13:07.008Z,5.25
2019-02-08T20:15:35.466Z,6.28
2019-02-08T20:18:04.393Z,5.55
2019-02-08T20:20:32.818Z,5.87
2019-02-08T20:23:01.547Z,5.30
2019-02-08T20:25:35.457Z,5.20
2019-02-08T20:28:04.149Z,7.60
2019-02-08T20:30:33.035Z,5.65
2019-02-08T20:33:01.816Z,5.75
2019-02-08T20:35:32.597Z,4.53
2019-02-08T20:38:03.549Z,5.20
2019-02-08T20:40:40.934Z,5.28
2019-02-08T20:43:09.421Z,4.50
2019-02-08T20:45:38.401Z,4.92
2019-02-08T20:48:12.314Z,4.30
2019-02-08T20:50:40.935Z,5.53
2019-02-08T20:53:09.679Z,7.08
2019-02-08T20:55:38.390Z,6.80
2019-02-08T20:58:09.165Z,6.03
2019-02-08T21:00:40.139Z,6.70
2019-02-08T21:03:11.858Z,5.33
2019-02-08T21:05:41.817Z,4.78
2019-02-08T21:08:11.986Z,5.65
2019-02-08T21:10:40.886Z,5.45
2019-02-08T21:13:10.461Z,5.47
2019-02-08T21:15:39.318Z,5.22
2019-02-08T21:18:08.694Z,5.47
2019-02-08T21:20:37.638Z,5.97
2019-02-08T21:23:06.797Z,5.58
2019-02-08T21:25:37.415Z,4.20
2019-02-08T21:28:06.694Z,3.45
2019-02-08T21:30:38.366Z,5.33
2019-02-08T21:33:09.244Z,4.50
2019-02-08T21:35:37.715Z,3.47
2019-02-08T21:38:07.578Z,3.35
2019-02-08T21:40:36.159Z,3.50
2019-02-08T21:43:06.422Z,3.98
2019-02-08T21:45:37.178Z,3.70
2019-02-08T21:48:07.586Z,3.52
2019-02-08T21:50:36.039Z,3.60
2019-02-08T21:53:04.918Z,2.52
2019-02-08T21:55:33.539Z,3.45
2019-02-08T21:58:01.969Z,3.08
2019-02-08T22:00:50.117Z,3.45
2019-02-08T22:03:18.522Z,3.50
2019-02-08T22:05:53.596Z,2.80
2019-02-08T22:08:22.191Z,3.67
2019-02-08T22:10:50.601Z,3.80
2019-02-08T22:13:19.035Z,3.30
2019-02-08T22:15:51.498Z,2.95
2019-02-08T22:18:20.318Z,3.05
2019-02-08T22:20:48.891Z,3.25
2019-02-08T22:23:17.365Z,3.45
2019-02-08T22:25:45.816Z,3.72
2019-02-08T22:28:14.262Z,3.50
2019-02-08T22:30:42.917Z,4.42
2019-02-08T22:33:11.698Z,3.37
2019-02-08T22:35:40.188Z,3.02
2019-02-08T22:38:09.144Z,4.00
2019-02-08T22:40:38.029Z,3.00
2019-02-08T22:43:07.352Z,5.83
2019-02-08T22:45:38.522Z,4.50
2019-02-08T22:48:07.695Z,2.90
2019-02-08T22:50:36.495Z,3.65
2019-02-08T22:53:07.040Z,3.30
2019-02-08T22:55:36.607Z,3.60
2019-02-08T22:58:07.383Z,3.47
2019-02-08T23:00:42.470Z,3.22
2019-02-08T23:03:12.923Z,2.80
2019-02-08T23:05:45.810Z,2.77
2019-02-08T23:08:12.119Z,3.65
2019-02-08T23:10:41.111Z,3.10
2019-02-08T23:13:10.236Z,3.42
2019-02-08T23:15:38.954Z,3.40
2019-02-08T23:18:08.795Z,2.50
2019-02-08T23:20:37.590Z,2.65
2019-02-08T23:23:08.078Z,2.87
2019-02-08T23:25:36.623Z,2.52
2019-02-08T23:28:05.541Z,2.33
2019-02-08T23:30:35.007Z,3.27
2019-02-08T23:33:03.682Z,2.77
2019-02-08T23:35:32.189Z,3.42
2019-02-08T23:38:00.601Z,3.12
2019-02-08T23:40:29.589Z,2.70
2019-02-08T23:42:58.129Z,3.12
2019-02-08T23:45:27.277Z,3.58
2019-02-08T23:47:58.775Z,2.98
2019-02-08T23:50:27.632Z,2.75
2019-02-08T23:52:56.058Z,3.47
2019-02-08T23:55:26.107Z,2.70
2019-02-08T23:57:54.559Z,2.72
